Time;durP1;ratioP1;P1;durP2;ratioP2;P2;SDS_P1;SDS_P2;PMS_P1;PMS_P2;Temp;Humidity;BMP_temperature;BMP_pressure;BME280_temperature;BME280_humidity;BME280_pressure;Samples;Min_cycle;Max_cycle;Signal;HPM_P1;HPM_P2
2021/01/01 00:01:45;;;;;;;21.27;16.20;;;;;;;7.95;78.15;99856.05;1740646;80;21138;-40
2021/01/01 00:04:13;;;;;;;20.00;15.23;;;;;;;7.92;78.19;99850.93;1739915;80;21105;-44
2021/01/01 00:06:49;;;;;;;19.90;15.53;;;;;;;7.92;78.25;99847.42;1740170;80;21154;-39
2021/01/01 00:09:17;;;;;;;18.45;15.28;;;;;;;7.91;78.25;99849.23;1733136;81;21158;-39
2021/01/01 00:11:50;;;;;;;19.60;14.90;;;;;;;7.87;78.37;99842.38;1732801;81;21170;-40
2021/01/01 00:14:20;;;;;;;20.23;15.63;;;;;;;7.88;78.36;99841.89;1728716;81;21123;-42
2021/01/01 00:16:47;;;;;;;19.85;14.43;;;;;;;7.89;78.42;99837.84;1727764;81;21126;-42
2021/01/01 00:19:15;;;;;;;19.73;14.95;;;;;;;7.87;78.44;99835.73;1696957;82;21139;-42
2021/01/01 00:21:42;;;;;;;18.77;14.93;;;;;;;7.87;78.49;99834.41;1730867;81;21126;-43
2021/01/01 00:24:10;;;;;;;19.57;14.63;;;;;;;7.84;78.57;99833.27;1728598;81;21158;-43
2021/01/01 00:26:37;;;;;;;18.98;14.07;;;;;;;7.83;78.67;99832.02;1727038;81;21154;-41
2021/01/01 00:29:06;;;;;;;19.77;14.78;;;;;;;7.82;78.78;99836.95;1730956;81;21115;-38
2021/01/01 00:31:33;;;;;;;20.00;14.80;;;;;;;7.80;78.87;99829.91;1730693;81;21162;-41
2021/01/01 00:34:01;;;;;;;22.20;16.20;;;;;;;7.82;78.97;99833.81;1732958;81;21624;-38
2021/01/01 00:36:29;;;;;;;20.50;15.63;;;;;;;7.81;79.00;99829.44;1732164;81;21155;-43
2021/01/01 00:38:56;;;;;;;20.10;15.70;;;;;;;7.80;79.11;99830.39;1732785;81;21167;-39
2021/01/01 00:41:33;;;;;;;22.52;16.82;;;;;;;7.80;79.20;99833.89;1733250;81;21142;-43
2021/01/01 00:44:01;;;;;;;20.65;15.23;;;;;;;7.81;79.30;99826.78;1731147;81;21178;-40
2021/01/01 00:46:29;;;;;;;24.32;17.10;;;;;;;7.82;79.35;99829.84;1730845;81;21175;-41
2021/01/01 00:48:58;;;;;;;21.15;14.53;;;;;;;7.82;79.44;99826.33;1697892;82;21540;-46
2021/01/01 00:51:28;;;;;;;19.32;15.63;;;;;;;7.83;79.41;99828.03;1732144;81;21176;-37
2021/01/01 00:53:56;;;;;;;22.35;16.37;;;;;;;7.83;79.81;99826.22;1731708;81;21132;-41
2021/01/01 00:56:25;;;;;;;23.55;15.58;;;;;;;7.84;79.69;99822.64;1730384;81;21541;-40
2021/01/01 00:58:54;;;;;;;24.55;15.93;;;;;;;7.86;79.76;99819.88;1730188;81;21125;-41
2021/01/01 01:01:24;;;;;;;28.92;16.97;;;;;;;7.86;79.83;99808.82;1728086;81;21154;-42
2021/01/01 01:03:54;;;;;;;20.57;15.05;;;;;;;7.86;80.27;99812.80;1728819;81;21131;-40
2021/01/01 01:06:22;;;;;;;21.73;16.23;;;;;;;7.84;79.99;99814.68;1732188;81;21182;-40
2021/01/01 01:08:49;;;;;;;20.88;14.07;;;;;;;7.84;80.07;99813.36;1723863;81;21707;-43
2021/01/01 01:11:24;;;;;;;25.00;15.43;;;;;;;7.86;80.10;99809.27;1727993;81;21174;-44
2021/01/01 01:13:53;;;;;;;24.57;17.00;;;;;;;7.89;80.09;99820.58;1732808;81;21143;-41
2021/01/01 01:16:25;;;;;;;21.97;14.70;;;;;;;7.91;80.21;99808.52;1728907;81;21199;-40
2021/01/01 01:18:53;;;;;;;17.75;13.35;;;;;;;7.94;80.16;99801.73;1731223;81;21136;-40
2021/01/01 01:21:21;;;;;;;22.15;16.48;;;;;;;7.92;80.12;99788.53;1730561;81;21155;-39
2021/01/01 01:23:49;;;;;;;23.83;16.45;;;;;;;7.96;80.14;99779.91;1728929;81;21139;-38
2021/01/01 01:26:17;;;;;;;21.85;15.03;;;;;;;7.96;80.13;99776.80;1735030;81;21154;-39
2021/01/01 01:28:44;;;;;;;24.75;15.53;;;;;;;7.97;80.07;99778.98;1730710;81;21134;-38
2021/01/01 01:31:12;;;;;;;23.02;16.73;;;;;;;7.97;80.13;99783.81;1729927;81;21173;-37
2021/01/01 01:33:40;;;;;;;24.52;16.17;;;;;;;7.98;80.08;99776.70;1732566;81;21958;-42
2021/01/01 01:36:07;;;;;;;21.12;15.68;;;;;;;8.00;80.10;99766.37;1731453;81;21138;-42
2021/01/01 01:38:35;;;;;;;22.65;16.50;;;;;;;8.05;80.03;99765.25;1735456;81;21138;-40
2021/01/01 01:41:02;;;;;;;23.60;15.98;;;;;;;8.06;79.98;99773.59;1730287;81;21627;-40
2021/01/01 01:43:30;;;;;;;27.00;17.23;;;;;;;8.07;79.95;99762.03;1729379;81;21142;-41
2021/01/01 01:45:57;;;;;;;22.80;16.80;;;;;;;8.10;79.92;99771.14;1675347;83;21163;-42
2021/01/01 01:48:29;;;;;;;23.62;16.57;;;;;;;8.08;79.84;99759.75;1730271;81;21135;-43
2021/01/01 01:50:57;;;;;;;26.45;16.80;;;;;;;8.09;79.81;99758.80;1731640;81;21582;-42
2021/01/01 01:53:26;;;;;;;22.58;15.48;;;;;;;8.09;79.78;99756.14;1728741;81;21158;-38
2021/01/01 01:55:53;;;;;;;23.95;17.17;;;;;;;8.08;79.72;99751.78;1728300;81;21146;-41
2021/01/01 01:58:21;;;;;;;20.92;14.87;;;;;;;8.09;79.71;99753.48;1727605;81;21122;-39
2021/01/01 02:03:23;;;;;;;23.12;16.35;;;;;;;8.09;79.55;99739.75;1729962;81;21142;-40
2021/01/01 02:05:50;;;;;;;25.15;18.02;;;;;;;8.10;79.50;99744.11;1730254;81;21185;-38
2021/01/01 02:08:19;;;;;;;23.42;16.02;;;;;;;8.08;79.46;99739.36;1729013;81;21213;-39
2021/01/01 02:10:48;;;;;;;20.82;15.43;;;;;;;8.08;79.45;99743.81;1713818;82;21216;-41
2021/01/01 02:13:16;;;;;;;24.98;17.75;;;;;;;8.05;79.38;99732.91;1714279;82;21435;-40
2021/01/01 02:15:43;;;;;;;28.77;18.35;;;;;;;8.05;79.39;99738.70;1716691;82;21150;-37
2021/01/01 02:18:11;;;;;;;23.57;15.00;;;;;;;8.06;79.41;99745.23;1713430;82;21166;-43
2021/01/01 02:20:38;;;;;;;24.18;17.67;;;;;;;8.05;79.46;99739.55;1714668;82;21154;-43
2021/01/01 02:23:06;;;;;;;25.08;17.12;;;;;;;8.08;79.39;99739.36;1677914;83;21750;-43
2021/01/01 02:25:33;;;;;;;24.85;17.00;;;;;;;8.09;79.34;99737.10;1715372;82;21181;-42
2021/01/01 02:28:01;;;;;;;23.05;16.15;;;;;;;8.10;79.28;99732.64;1711530;82;21677;-43
2021/01/01 02:30:31;;;;;;;22.73;15.28;;;;;;;8.10;79.22;99726.84;1713896;82;21127;-40
2021/01/01 02:32:58;;;;;;;21.37;16.35;;;;;;;8.10;79.19;99730.83;1711510;82;21166;-43
2021/01/01 02:35:26;;;;;;;21.37;15.75;;;;;;;8.11;79.11;99729.87;1675547;83;21132;-43
2021/01/01 02:37:54;;;;;;;19.87;15.25;;;;;;;8.10;79.04;99718.87;1717184;82;21119;-43
2021/01/01 02:40:21;;;;;;;22.95;16.35;;;;;;;8.11;78.96;99713.09;1718163;82;21170;-42
2021/01/01 02:42:49;;;;;;;19.70;15.00;;;;;;;8.10;78.90;99708.25;1714491;82;21684;-38
2021/01/01 02:45:16;;;;;;;22.90;15.80;;;;;;;8.09;78.88;99707.89;1711509;82;21198;-39
2021/01/01 02:47:45;;;;;;;19.65;15.83;;;;;;;8.07;78.85;99703.62;1717536;82;21122;-40
2021/01/01 02:50:13;;;;;;;22.45;16.10;;;;;;;8.05;78.85;99698.39;1688475;82;21110;-40
2021/01/01 02:52:40;;;;;;;21.35;14.85;;;;;;;8.06;78.86;99696.58;1715770;82;21163;-38
2021/01/01 02:55:09;;;;;;;20.05;14.78;;;;;;;8.05;78.81;99686.92;1716480;82;21178;-39
2021/01/01 02:57:37;;;;;;;20.37;15.38;;;;;;;8.06;78.84;99685.95;1715733;82;21312;-39
2021/01/01 03:00:06;;;;;;;18.37;14.53;;;;;;;8.06;78.84;99680.65;1681074;83;21164;-38
2021/01/01 03:02:34;;;;;;;21.10;12.53;;;;;;;8.06;78.84;99678.84;1682459;83;21427;-39
2021/01/01 03:05:02;;;;;;;19.07;14.87;;;;;;;8.08;78.80;99682.73;1669115;84;21674;-40
2021/01/01 03:07:29;;;;;;;18.37;13.68;;;;;;;8.08;78.78;99677.43;1669591;84;21161;-40
2021/01/01 03:09:57;;;;;;;17.92;14.45;;;;;;;8.07;78.77;99679.72;1683924;83;21185;-44
2021/01/01 03:12:24;;;;;;;17.23;13.25;;;;;;;8.05;78.80;99668.33;1687782;83;21154;-38
2021/01/01 03:14:52;;;;;;;19.02;13.88;;;;;;;8.06;78.78;99666.04;1689953;83;21163;-39
2021/01/01 03:17:19;;;;;;;18.67;14.63;;;;;;;8.03;78.80;99661.30;1707368;82;21625;-41
2021/01/01 03:19:47;;;;;;;18.05;12.88;;;;;;;8.04;78.90;99656.86;1731921;81;21174;-41
2021/01/01 03:22:14;;;;;;;17.30;13.50;;;;;;;8.06;78.87;99663.39;1737997;81;21535;-41
2021/01/01 03:24:42;;;;;;;16.00;13.40;;;;;;;8.06;78.84;99654.94;1735383;81;21143;-40
2021/01/01 03:27:09;;;;;;;17.35;12.78;;;;;;;8.06;78.93;99653.61;1734196;81;21151;-41
2021/01/01 03:29:37;;;;;;;17.85;13.72;;;;;;;8.09;78.90;99652.13;1734113;81;21272;-41
2021/01/01 03:32:05;;;;;;;18.35;13.93;;;;;;;8.09;78.91;99643.27;1732066;81;21160;-47
2021/01/01 03:34:32;;;;;;;16.17;12.33;;;;;;;8.10;78.89;99651.16;1734994;81;21138;-40
2021/01/01 03:37:01;;;;;;;17.57;12.93;;;;;;;8.11;78.86;99640.91;1734667;81;21170;-41
2021/01/01 03:39:28;;;;;;;14.63;12.50;;;;;;;8.12;78.85;99643.11;1735382;81;21630;-41
2021/01/01 03:41:56;;;;;;;18.00;13.40;;;;;;;8.12;78.84;99633.82;1733801;81;21115;-39
2021/01/01 03:44:24;;;;;;;18.05;13.38;;;;;;;8.12;78.82;99633.34;1736077;81;21127;-42
2021/01/01 03:46:51;;;;;;;15.32;12.80;;;;;;;8.10;78.80;99639.69;1736325;81;21138;-37
2021/01/01 03:49:19;;;;;;;17.48;13.35;;;;;;;8.09;78.82;99649.91;1700595;82;21548;-41
2021/01/01 03:51:47;;;;;;;16.32;12.70;;;;;;;8.08;78.95;99642.91;1735541;81;21134;-40
2021/01/01 03:54:14;;;;;;;13.60;11.65;;;;;;;8.07;78.84;99647.38;1734499;81;21439;-46
2021/01/01 03:56:42;;;;;;;15.38;12.58;;;;;;;8.06;79.00;99639.48;1734972;81;21530;-41
2021/01/01 03:59:09;;;;;;;17.05;13.15;;;;;;;8.06;79.04;99630.20;1730669;81;21138;-43
2021/01/01 04:01:37;;;;;;;17.27;11.95;;;;;;;8.05;79.00;99623.19;1738254;81;21154;-43
2021/01/01 04:04:04;;;;;;;15.68;12.05;;;;;;;8.03;79.02;99624.12;1733971;81;21131;-42
2021/01/01 04:06:32;;;;;;;14.35;11.90;;;;;;;8.03;79.21;99617.48;1736269;81;21162;-41
2021/01/01 04:08:59;;;;;;;17.37;13.35;;;;;;;8.05;78.93;99609.91;1732635;81;21126;-42
2021/01/01 04:11:27;;;;;;;13.88;10.95;;;;;;;8.06;78.84;99606.30;1734547;81;21147;-42
2021/01/01 04:13:54;;;;;;;15.53;11.33;;;;;;;8.03;78.73;99604.69;1732893;81;21159;-39
2021/01/01 04:16:22;;;;;;;15.75;11.97;;;;;;;8.02;78.69;99609.63;1737553;81;21134;-45
2021/01/01 04:18:49;;;;;;;12.20;10.32;;;;;;;8.00;78.68;99611.52;1727476;81;21166;-39
2021/01/01 04:21:17;;;;;;;14.87;12.28;;;;;;;7.98;78.56;99612.92;1734209;81;21131;-42
2021/01/01 04:23:44;;;;;;;14.13;10.85;;;;;;;7.95;78.59;99613.13;1734607;81;21182;-39
2021/01/01 04:26:13;;;;;;;12.40;9.65;;;;;;;7.93;78.58;99601.73;1733958;81;21160;-43
2021/01/01 04:28:40;;;;;;;12.65;9.73;;;;;;;7.92;78.60;99604.51;1733544;81;21103;-44
2021/01/01 04:31:08;;;;;;;11.33;9.83;;;;;;;7.90;78.63;99613.03;1732983;82;21104;-44
2021/01/01 04:33:35;;;;;;;11.12;9.08;;;;;;;7.86;78.72;99615.03;1730877;81;21156;-41
2021/01/01 04:36:04;;;;;;;11.70;9.35;;;;;;;7.84;78.75;99618.70;1734395;81;21158;-38
2021/01/01 04:38:32;;;;;;;12.50;10.20;;;;;;;7.82;78.66;99604.20;1735891;81;21154;-41
2021/01/01 04:40:59;;;;;;;14.45;10.82;;;;;;;7.82;78.73;99586.95;1735857;81;21555;-40
2021/01/01 04:43:27;;;;;;;16.32;10.88;;;;;;;7.76;78.69;99590.84;1736608;81;21492;-42
2021/01/01 04:45:54;;;;;;;13.08;9.65;;;;;;;7.75;78.65;99607.70;1729025;81;21145;-39
2021/01/01 04:48:21;;;;;;;13.85;10.28;;;;;;;7.73;78.61;99609.58;1732458;81;21149;-39
2021/01/01 04:50:49;;;;;;;14.33;10.85;;;;;;;7.74;78.60;99611.79;1735172;81;21145;-40
2021/01/01 04:53:18;;;;;;;16.60;10.85;;;;;;;7.71;78.57;99582.76;1732499;81;21161;-41
2021/01/01 04:55:45;;;;;;;14.25;10.50;;;;;;;7.69;78.58;99597.47;1697191;81;21119;-39
2021/01/01 04:58:14;;;;;;;12.88;10.88;;;;;;;7.68;78.56;99589.11;1731704;81;21182;-40
2021/01/01 05:00:41;;;;;;;15.25;11.35;;;;;;;7.68;78.57;99597.06;1735280;81;21516;-40
2021/01/01 05:03:09;;;;;;;12.43;9.73;;;;;;;7.66;78.62;99588.81;1733441;81;21169;-42
2021/01/01 05:05:36;;;;;;;16.27;11.43;;;;;;;7.66;78.62;99588.81;1733152;81;21123;-38
2021/01/01 05:08:04;;;;;;;12.50;9.88;;;;;;;7.65;78.62;99589.78;1729290;81;21141;-41
2021/01/01 05:10:35;;;;;;;13.35;10.25;;;;;;;7.65;78.59;99590.63;1745686;81;21568;-41
2021/01/01 05:13:13;;;;;;;11.38;10.00;;;;;;;7.64;78.60;99589.41;1742672;81;21138;-44
2021/01/01 05:15:42;;;;;;;12.95;10.45;;;;;;;7.62;78.67;99600.11;1725987;81;21859;-40
2021/01/01 05:18:25;;;;;;;14.53;9.30;;;;;;;7.61;78.65;99594.88;1746502;81;21154;-41
2021/01/01 05:20:58;;;;;;;12.68;10.13;;;;;;;7.66;79.36;99597.66;1750341;80;21146;-38
2021/01/01 05:23:27;;;;;;;11.60;9.05;;;;;;;7.72;79.24;99595.95;1751299;81;21287;-37
2021/01/01 05:26:14;;;;;;;11.88;9.68;;;;;;;7.75;79.20;99591.77;1745605;80;21287;-36
2021/01/01 05:28:51;;;;;;;11.60;10.10;;;;;;;7.78;79.05;99604.85;1744180;80;21171;-37
2021/01/01 05:31:27;;;;;;;12.07;10.50;;;;;;;7.81;79.04;99603.81;1748589;80;21149;-40
2021/01/01 05:34:13;;;;;;;10.32;9.08;;;;;;;7.81;78.90;99597.17;1744144;80;21465;-39
2021/01/01 05:36:44;;;;;;;12.05;9.48;;;;;;;7.80;78.87;99594.16;1747094;81;21450;-39
2021/01/01 05:39:20;;;;;;;10.78;8.58;;;;;;;7.82;78.69;99596.73;1750785;80;21847;-38
2021/01/01 05:41:52;;;;;;;13.13;8.85;;;;;;;7.78;78.38;99593.38;1747864;81;21177;-40
2021/01/01 05:44:28;;;;;;;11.78;8.98;;;;;;;7.74;78.32;99595.87;1749258;80;21683;-40
2021/01/01 05:47:03;;;;;;;11.22;8.95;;;;;;;7.70;78.37;99587.70;1748981;80;21443;-40
2021/01/01 05:49:38;;;;;;;11.73;8.90;;;;;;;7.69;78.32;99591.31;1708360;82;21164;-38
2021/01/01 05:52:21;;;;;;;12.73;9.90;;;;;;;7.69;78.26;99583.34;1675902;83;21153;-40
2021/01/01 05:54:51;;;;;;;11.45;8.68;;;;;;;7.67;78.75;99587.41;1699039;83;21482;-40
2021/01/01 05:57:21;;;;;;;13.53;9.68;;;;;;;7.72;79.11;99592.45;1684758;83;21149;-49
2021/01/01 05:59:49;;;;;;;12.88;9.00;;;;;;;7.82;78.92;99590.94;1692584;83;21181;-40
2021/01/01 06:02:16;;;;;;;10.68;9.28;;;;;;;7.83;78.52;99588.66;1691932;83;21154;-41
2021/01/01 06:04:44;;;;;;;13.08;10.05;;;;;;;7.82;78.81;99589.61;1693684;83;21209;-42
2021/01/01 06:07:11;;;;;;;12.78;8.63;;;;;;;7.89;78.61;99598.06;1685731;83;21138;-38
2021/01/01 06:09:40;;;;;;;10.90;8.55;;;;;;;7.92;78.34;99593.89;1709180;82;21640;-41
2021/01/01 06:12:12;;;;;;;14.20;11.08;;;;;;;7.94;78.10;99580.05;1734175;80;21139;-44
2021/01/01 06:14:43;;;;;;;12.35;9.30;;;;;;;7.91;77.91;99582.87;1738793;80;21162;-43
2021/01/01 06:17:15;;;;;;;12.18;9.35;;;;;;;7.87;77.86;99586.68;1738446;81;21178;-38
2021/01/01 06:19:52;;;;;;;15.68;9.73;;;;;;;7.85;77.82;99579.28;1743653;80;21147;-41
2021/01/01 06:22:25;;;;;;;13.60;10.00;;;;;;;7.83;77.72;99585.15;1742124;81;21165;-40
2021/01/01 06:24:57;;;;;;;11.55;9.28;;;;;;;7.81;77.64;99575.94;1741122;80;21188;-40
2021/01/01 06:27:29;;;;;;;12.30;9.78;;;;;;;7.80;77.63;99583.05;1742584;80;21162;-39
2021/01/01 06:30:05;;;;;;;10.85;8.88;;;;;;;7.78;77.67;99576.98;1740923;80;21446;-40
2021/01/01 06:32:33;;;;;;;12.93;10.43;;;;;;;7.76;77.58;99568.28;1742070;80;21176;-41
2021/01/01 06:35:15;;;;;;;13.60;9.65;;;;;;;7.73;77.62;99574.23;1742579;80;21176;-39
2021/01/01 06:37:49;;;;;;;17.02;9.73;;;;;;;7.73;77.77;99567.12;1743596;80;21132;-39
2021/01/01 06:40:28;;;;;;;16.27;10.32;;;;;;;7.73;77.97;99567.12;1741639;80;21189;-40
2021/01/01 06:42:58;;;;;;;18.27;10.23;;;;;;;7.75;78.23;99563.06;1718056;81;21683;-38
2021/01/01 06:45:39;;;;;;;17.67;10.80;;;;;;;7.79;78.42;99577.86;1720285;81;21142;-39
2021/01/01 06:48:24;;;;;;;17.07;10.30;;;;;;;7.84;78.64;99564.28;1720254;81;21164;-42
2021/01/01 06:50:53;;;;;;;15.90;9.70;;;;;;;7.88;78.84;99575.95;1724467;81;21128;-40
2021/01/01 06:53:30;;;;;;;18.40;10.82;;;;;;;7.92;78.88;99570.84;1722145;81;21541;-42
2021/01/01 06:56:10;;;;;;;14.58;10.28;;;;;;;7.95;79.03;99575.95;1664963;84;21185;-43
2021/01/01 06:58:38;;;;;;;17.70;9.80;;;;;;;7.98;78.99;99572.25;1683283;83;21150;-41
2021/01/01 07:01:16;;;;;;;15.13;9.73;;;;;;;8.00;79.10;99571.21;1681862;83;21219;-39
2021/01/01 07:03:44;;;;;;;14.47;10.38;;;;;;;8.03;79.13;99575.00;1682534;83;21171;-50
2021/01/01 07:06:20;;;;;;;16.12;10.38;;;;;;;8.07;79.25;99575.67;1717895;81;21200;-45
2021/01/01 07:09:18;;;;;;;13.93;9.60;;;;;;;8.08;79.54;99577.85;1722885;81;21181;-41
2021/01/01 07:12:14;;;;;;;16.48;9.18;;;;;;;8.17;79.64;99579.94;1817027;77;24531;-38
2021/01/01 07:14:42;;;;;;;18.48;10.78;;;;;;;8.15;79.70;99588.47;1778699;78;21144;-40
2021/01/01 07:17:10;;;;;;;15.50;9.10;;;;;;;8.16;79.67;99586.19;1785755;78;21149;-41
2021/01/01 07:19:39;;;;;;;15.10;10.15;;;;;;;8.17;79.78;99588.76;1786680;78;21106;-39
2021/01/01 07:22:07;;;;;;;15.90;9.88;;;;;;;8.20;79.80;99585.05;1789067;78;21560;-38
2021/01/01 07:24:34;;;;;;;14.63;9.75;;;;;;;8.23;79.85;99593.67;1788320;78;21144;-44
2021/01/01 07:27:02;;;;;;;14.50;10.68;;;;;;;8.24;79.87;99584.77;1745958;80;21150;-43
2021/01/01 07:29:29;;;;;;;15.03;11.00;;;;;;;8.27;79.92;99592.17;1723196;81;21599;-47
2021/01/01 07:31:57;;;;;;;13.48;9.33;;;;;;;8.30;79.81;99597.29;1752095;80;21169;-41
2021/01/01 07:34:25;;;;;;;13.98;9.70;;;;;;;8.32;79.88;99600.71;1717467;81;21204;-43
2021/01/01 07:37:01;;;;;;;14.35;9.18;;;;;;;8.32;79.90;99600.23;1718432;82;21124;-41
2021/01/01 07:39:31;;;;;;;12.45;9.45;;;;;;;8.32;79.93;99596.72;1691779;82;21128;-39
2021/01/01 07:42:08;;;;;;;14.73;9.45;;;;;;;8.32;79.94;99602.03;1717338;81;21170;-41
2021/01/01 07:44:35;;;;;;;14.03;9.80;;;;;;;8.34;79.98;99592.14;1718601;81;21178;-37
2021/01/01 07:47:03;;;;;;;12.10;9.48;;;;;;;8.37;80.00;99607.43;1721420;81;21606;-44
2021/01/01 07:49:33;;;;;;;11.28;9.53;;;;;;;8.39;80.04;99594.94;1691396;83;21153;-42
2021/01/01 07:52:05;;;;;;;13.68;9.53;;;;;;;8.42;80.02;99604.52;1721471;81;21166;-44
2021/01/01 07:54:50;;;;;;;13.38;9.40;;;;;;;8.42;80.06;99601.86;1719563;81;21173;-44
2021/01/01 07:57:36;;;;;;;13.48;9.30;;;;;;;8.40;80.18;99601.10;1720666;81;21150;-47
2021/01/01 08:00:07;;;;;;;14.73;9.83;;;;;;;8.39;80.27;99602.91;1718628;82;21183;-40
2021/01/01 08:03:01;;;;;;;10.53;8.60;;;;;;;8.38;80.41;99606.95;1690155;83;21304;-41
2021/01/01 08:05:29;;;;;;;14.63;9.18;;;;;;;8.39;80.53;99598.02;1693844;83;21125;-38
2021/01/01 08:08:17;;;;;;;12.43;9.15;;;;;;;8.41;80.62;99604.13;1692135;83;21203;-38
2021/01/01 08:10:48;;;;;;;12.33;8.20;;;;;;;8.41;80.74;99608.11;1687863;83;21188;-44
2021/01/01 08:13:46;;;;;;;10.70;8.48;;;;;;;8.43;80.85;99615.52;1627871;86;21246;-42
2021/01/01 08:16:19;;;;;;;12.23;8.63;;;;;;;8.45;81.03;99616.27;1585986;89;21727;-41
2021/01/01 08:18:47;;;;;;;11.33;8.83;;;;;;;8.48;81.17;99616.56;1577831;89;21202;-42
2021/01/01 08:21:23;;;;;;;10.65;8.33;;;;;;;8.57;81.33;99619.97;1782552;78;28236;-41
2021/01/01 08:24:03;;;;;;;14.15;7.30;;;;;;;8.58;81.42;99617.68;1774143;79;21553;-43
2021/01/01 08:26:48;;;;;;;10.90;8.05;;;;;;;8.66;81.45;99622.02;1778871;79;21491;-42
2021/01/01 08:29:15;;;;;;;12.82;8.25;;;;;;;8.70;81.42;99630.67;1776414;79;21117;-43
2021/01/01 08:31:45;;;;;;;8.75;6.92;;;;;;;8.73;81.52;99633.13;1780019;79;21125;-40
2021/01/01 08:34:12;;;;;;;9.55;8.35;;;;;;;8.75;81.59;99629.90;1727222;80;21169;-42
2021/01/01 08:36:40;;;;;;;10.82;7.30;;;;;;;8.78;81.71;99635.02;1753050;81;21188;-40
2021/01/01 08:42:23;;;;;;;8.55;6.97;;;;;;;8.91;81.79;99640.39;1798397;78;23119;-41
2021/01/01 08:44:58;;;;;;;10.55;7.85;;;;;;;8.90;81.80;99645.34;1746833;81;21143;-41
2021/01/01 08:47:46;;;;;;;12.50;9.43;;;;;;;8.93;81.81;99650.45;1712405;83;21674;-42
2021/01/01 08:50:28;;;;;;;10.55;7.15;;;;;;;8.96;81.86;99654.23;1716372;82;21151;-43
2021/01/01 08:53:02;;;;;;;10.60;7.37;;;;;;;9.00;81.88;99650.44;1744675;80;21153;-45
2021/01/01 08:55:30;;;;;;;10.28;7.12;;;;;;;9.02;81.89;99656.48;1715513;81;22219;-45
2021/01/01 08:58:14;;;;;;;11.83;7.08;;;;;;;9.03;81.93;99655.55;1715780;81;21192;-45
2021/01/01 09:00:46;;;;;;;9.15;6.17;;;;;;;9.05;81.91;99657.64;1703318;82;21173;-46
2021/01/01 09:03:15;;;;;;;9.78;6.97;;;;;;;9.10;81.91;99660.85;1736790;81;21161;-44
2021/01/01 09:05:44;;;;;;;10.35;6.35;;;;;;;9.14;81.94;99667.66;1730836;81;21651;-46
2021/01/01 09:08:17;;;;;;;9.90;6.33;;;;;;;9.19;81.95;99672.20;1731999;81;21186;-45
2021/01/01 09:10:47;;;;;;;8.18;6.78;;;;;;;9.23;81.98;99669.73;1702314;82;21199;-44
2021/01/01 09:13:26;;;;;;;9.40;6.25;;;;;;;9.27;82.00;99668.59;1709721;82;21180;-42
2021/01/01 09:16:03;;;;;;;6.83;5.70;;;;;;;9.33;82.02;99673.97;1712565;82;21204;-45
2021/01/01 09:18:31;;;;;;;9.33;6.62;;;;;;;9.41;81.98;99681.45;1714525;82;21180;-46
2021/01/01 09:21:14;;;;;;;9.48;6.15;;;;;;;9.44;81.92;99676.76;1735492;81;21183;-46
2021/01/01 09:23:44;;;;;;;7.72;6.00;;;;;;;9.48;81.91;99682.75;1739432;80;21176;-44
2021/01/01 09:26:24;;;;;;;9.85;6.15;;;;;;;9.51;81.83;99680.72;1749391;81;21444;-46
2021/01/01 09:29:07;;;;;;;10.63;5.90;;;;;;;9.54;81.75;99675.67;1746839;81;21178;-43
2021/01/01 09:31:37;;;;;;;7.65;5.87;;;;;;;9.56;81.73;99675.58;1711845;81;21907;-42
2021/01/01 09:34:07;;;;;;;9.40;5.87;;;;;;;9.58;81.72;99675.86;1745552;80;21169;-45
2021/01/01 09:36:39;;;;;;;6.33;5.30;;;;;;;9.61;81.66;99676.97;1738469;81;21974;-43
2021/01/01 09:39:08;;;;;;;6.67;5.30;;;;;;;9.65;81.60;99673.61;1728975;81;21674;-43
2021/01/01 09:41:37;;;;;;;6.47;5.85;;;;;;;9.67;81.62;99676.55;1748187;81;21177;-45
2021/01/01 09:44:05;;;;;;;7.72;5.45;;;;;;;9.71;81.58;99675.88;1704304;83;21173;-45
2021/01/01 09:46:38;;;;;;;7.47;5.87;;;;;;;9.73;81.55;99670.83;1672776;84;21151;-46
2021/01/01 09:49:05;;;;;;;7.28;4.95;;;;;;;9.79;81.53;99674.88;1688477;83;21916;-43
2021/01/01 09:51:35;;;;;;;7.08;5.25;;;;;;;9.82;81.47;99675.99;1704041;83;21639;-43
2021/01/01 09:54:04;;;;;;;6.75;4.90;;;;;;;9.84;81.45;99681.23;1679146;84;21153;-42
2021/01/01 09:56:34;;;;;;;7.22;6.20;;;;;;;9.84;81.35;99678.56;1683155;83;21165;-43
2021/01/01 09:59:02;;;;;;;6.35;5.05;;;;;;;9.86;81.30;99679.31;1669001;84;21170;-44
2021/01/01 10:01:31;;;;;;;6.62;5.70;;;;;;;9.88;81.24;99685.40;1722586;82;21673;-42
2021/01/01 10:03:58;;;;;;;9.20;4.42;;;;;;;9.90;81.14;99683.45;1724764;81;21157;-43
2021/01/01 10:06:26;;;;;;;6.87;4.87;;;;;;;9.93;81.12;99677.95;1712365;82;21178;-43
2021/01/01 10:09:24;;;;;;;5.45;4.85;;;;;;;9.94;81.00;99682.30;1714022;82;21199;-43
2021/01/01 10:11:52;;;;;;;6.40;5.00;;;;;;;9.95;80.97;99681.33;1716552;81;21166;-44
2021/01/01 10:14:20;;;;;;;9.63;5.37;;;;;;;9.97;80.89;99686.08;1688129;83;21206;-42
2021/01/01 10:16:48;;;;;;;7.30;4.87;;;;;;;10.00;80.82;99683.20;1699041;82;21167;-44
2021/01/01 10:19:16;;;;;;;8.55;5.30;;;;;;;10.02;80.71;99684.44;1718866;82;21116;-44
2021/01/01 10:21:44;;;;;;;7.25;5.65;;;;;;;10.04;80.61;99682.53;1715310;81;21261;-45
2021/01/01 10:24:12;;;;;;;6.33;5.00;;;;;;;10.05;80.62;99684.22;1716054;81;21547;-42
2021/01/01 10:26:39;;;;;;;6.33;4.50;;;;;;;10.09;80.47;99688.39;1702253;82;21158;-41
2021/01/01 10:29:09;;;;;;;8.08;4.72;;;;;;;10.11;80.31;99692.66;1669280;84;21174;-41
2021/01/01 10:31:36;;;;;;;8.73;4.80;;;;;;;10.12;80.19;99691.69;1705163;81;21157;-45
2021/01/01 10:34:04;;;;;;;5.67;4.70;;;;;;;10.14;80.02;99695.59;1713952;82;21174;-46
2021/01/01 10:36:32;;;;;;;6.62;4.72;;;;;;;10.15;79.96;99694.16;1703655;81;21177;-43
2021/01/01 10:38:59;;;;;;;5.90;4.78;;;;;;;10.16;79.87;99691.86;1699854;82;21199;-43
2021/01/01 10:41:27;;;;;;;6.37;4.35;;;;;;;10.17;79.84;99690.89;1722643;82;21146;-43
2021/01/01 10:43:54;;;;;;;5.58;3.72;;;;;;;10.19;79.70;99691.64;1717020;82;21532;-44
2021/01/01 10:46:21;;;;;;;5.60;4.00;;;;;;;10.21;79.65;99695.55;1720702;81;21199;-43
2021/01/01 10:48:49;;;;;;;5.42;4.30;;;;;;;10.22;79.59;99693.23;1707901;81;21733;-51
2021/01/01 10:51:22;;;;;;;6.42;4.53;;;;;;;10.26;79.57;99700.07;1716690;82;21182;-43
2021/01/01 10:53:50;;;;;;;7.30;4.95;;;;;;;10.29;79.45;99697.22;1705309;81;21136;-43
2021/01/01 10:56:27;;;;;;;7.65;5.65;;;;;;;10.33;79.37;99704.51;1718740;81;21155;-40
2021/01/01 10:58:55;;;;;;;7.45;4.70;;;;;;;10.34;79.31;99704.41;1721420;81;21591;-41
2021/01/01 11:01:24;;;;;;;9.43;5.67;;;;;;;10.34;79.21;99708.89;1707894;82;21166;-43
2021/01/01 11:03:52;;;;;;;6.42;5.15;;;;;;;10.37;79.21;99711.34;1701396;82;21164;-42
2021/01/01 11:06:19;;;;;;;6.70;4.35;;;;;;;10.42;79.09;99716.36;1709503;82;21174;-43
2021/01/01 11:08:47;;;;;;;6.67;4.92;;;;;;;10.44;78.97;99713.11;1650296;84;21173;-44
2021/01/01 11:11:23;;;;;;;6.55;4.45;;;;;;;10.44;78.86;99716.63;1714336;82;21161;-45
2021/01/01 11:13:58;;;;;;;5.65;4.20;;;;;;;10.46;78.68;99713.38;1718961;82;21143;-44
2021/01/01 12:24:05;;;;;;;9.30;7.47;;;;;;;11.02;76.55;99744.98;1647058;84;21577;-42
2021/01/01 12:26:20;;;;;;;11.50;8.33;;;;;;;11.01;76.48;99756.13;1649544;84;21193;-44
2021/01/01 12:28:49;;;;;;;10.80;8.55;;;;;;;11.01;76.40;99753.47;1647555;84;21181;-44
2021/01/01 12:31:17;;;;;;;7.55;6.75;;;;;;;11.02;76.33;99763.16;1655924;84;21189;-44
2021/01/01 12:33:45;;;;;;;7.50;5.40;;;;;;;11.02;76.34;99770.32;1644287;85;21224;-43
2021/01/01 12:36:12;;;;;;;4.87;3.75;;;;;;;10.99;76.34;99771.87;1648303;85;21201;-47
2021/01/01 12:38:40;;;;;;;5.37;4.10;;;;;;;10.97;76.24;99771.97;1625999;86;21193;-45
2021/01/01 12:41:08;;;;;;;5.45;3.92;;;;;;;10.96;76.17;99767.62;1641954;84;21816;-45
2021/01/01 12:43:36;;;;;;;4.97;3.98;;;;;;;10.98;76.11;99768.33;1649990;85;21303;-42
2021/01/01 12:46:04;;;;;;;7.92;5.97;;;;;;;10.96;76.07;99773.41;1646198;85;21254;-42
2021/01/01 12:48:32;;;;;;;7.67;5.08;;;;;;;10.94;75.97;99776.20;1639827;85;21205;-40
2021/01/01 12:50:59;;;;;;;6.25;4.80;;;;;;;10.96;75.79;99786.75;1647881;84;21154;-45
2021/01/01 12:53:27;;;;;;;5.00;4.15;;;;;;;10.96;75.67;99786.75;1642150;84;21633;-43
2021/01/01 12:55:55;;;;;;;5.35;4.17;;;;;;;10.97;75.56;99784.47;1706453;82;21545;-43
2021/01/01 12:58:22;;;;;;;5.20;4.10;;;;;;;10.97;75.45;99783.13;1714226;82;21165;-44